createdAt,value
2018-04-24T00:00:17.217Z,1012.62
2018-04-24T00:01:17.198Z,1012.61
2018-04-24T00:02:17.208Z,1012.59
2018-04-24T00:03:17.195Z,1012.58
2018-04-24T00:04:17.204Z,1012.57
2018-04-24T00:05:17.191Z,1012.56
2018-04-24T00:06:17.388Z,1012.57
2018-04-24T00:07:17.196Z,1012.57
2018-04-24T00:08:17.182Z,1012.53
2018-04-24T00:09:17.181Z,1012.52
2018-04-24T00:10:17.398Z,1012.51
2018-04-24T00:11:17.189Z,1012.51
2018-04-24T00:12:17.377Z,1012.52
2018-04-24T00:13:17.191Z,1012.54
2018-04-24T00:14:17.177Z,1012.54
2018-04-24T00:15:17.389Z,1012.56
2018-04-24T00:16:17.163Z,1012.57
2018-04-24T00:17:17.173Z,1012.58
2018-04-24T00:18:17.186Z,1012.63
2018-04-24T00:19:17.167Z,1012.65
2018-04-24T00:20:17.371Z,1012.65
2018-04-24T00:21:17.156Z,1012.67
2018-04-24T00:22:17.149Z,1012.67
2018-04-24T00:23:17.150Z,1012.67
2018-04-24T00:24:17.146Z,1012.71
2018-04-24T00:25:17.145Z,1012.72
2018-04-24T00:26:17.151Z,1012.69
2018-04-24T00:27:17.153Z,1012.68
2018-04-24T00:28:17.341Z,1012.62
2018-04-24T00:29:17.137Z,1012.61
2018-04-24T00:30:17.350Z,1012.59
2018-04-24T00:31:17.131Z,1012.56
2018-04-24T00:32:17.126Z,1012.52
2018-04-24T00:33:17.137Z,1012.48
2018-04-24T00:34:17.129Z,1012.47
2018-04-24T00:35:17.133Z,1012.50
2018-04-24T00:36:17.134Z,1012.49
2018-04-24T00:37:17.127Z,1012.46
2018-04-24T00:38:17.144Z,1012.44
2018-04-24T00:39:17.112Z,1012.41
2018-04-24T00:40:17.111Z,1012.35
2018-04-24T00:41:17.109Z,1012.32
2018-04-24T00:42:17.322Z,1012.37
2018-04-24T00:43:17.311Z,1012.37
2018-04-24T00:44:17.321Z,1012.34
2018-04-24T00:45:17.110Z,1012.37
2018-04-24T00:46:17.094Z,1012.40
2018-04-24T00:47:17.310Z,1012.42
2018-04-24T00:48:17.093Z,1012.34
2018-04-24T00:49:17.310Z,1012.35
2018-04-24T00:50:17.104Z,1012.32
2018-04-24T00:51:17.086Z,1012.29
2018-04-24T00:52:17.085Z,1012.25
2018-04-24T00:53:17.095Z,1012.27
2018-04-24T00:54:17.081Z,1012.30
2018-04-24T00:55:17.284Z,1012.30
2018-04-24T00:56:17.077Z,1012.25
2018-04-24T00:57:17.279Z,1012.27
2018-04-24T00:58:17.072Z,1012.22
2018-04-24T00:59:17.069Z,1012.21
2018-04-24T01:00:17.065Z,1012.20
2018-04-24T01:01:17.068Z,1012.17
2018-04-24T01:02:17.063Z,1012.17
2018-04-24T01:03:17.061Z,1012.22
2018-04-24T01:04:17.059Z,1012.24
2018-04-24T01:05:17.060Z,1012.24
2018-04-24T01:06:17.055Z,1012.18
2018-04-24T01:07:17.053Z,1012.29
2018-04-24T01:08:17.052Z,1012.30
2018-04-24T01:09:17.252Z,1012.30
2018-04-24T01:10:17.047Z,1012.37
2018-04-24T01:11:17.252Z,1012.35
2018-04-24T01:12:17.042Z,1012.36
2018-04-24T01:13:17.242Z,1012.41
2018-04-24T01:14:17.053Z,1012.45
2018-04-24T01:15:17.039Z,1012.47
2018-04-24T01:16:17.054Z,1012.48
2018-04-24T01:17:17.033Z,1012.43
2018-04-24T01:18:17.046Z,1012.41
2018-04-24T01:19:17.028Z,1012.40
2018-04-24T01:20:17.232Z,1012.41
2018-04-24T01:21:17.025Z,1012.40
2018-04-24T01:22:17.024Z,1012.38
2018-04-24T01:23:17.237Z,1012.39
2018-04-24T01:24:17.224Z,1012.43
2018-04-24T01:25:17.236Z,1012.46
2018-04-24T01:26:17.029Z,1012.44
2018-04-24T01:27:17.013Z,1012.47
2018-04-24T01:28:17.229Z,1012.50
2018-04-24T01:29:17.010Z,1012.52
2018-04-24T01:30:17.012Z,1012.55
2018-04-24T01:31:17.214Z,1012.52
2018-04-24T01:32:17.032Z,1012.53
2018-04-24T01:33:17.013Z,1012.55
2018-04-24T01:34:17.001Z,1012.54
2018-04-24T01:35:16.998Z,1012.58
2018-04-24T01:36:17.211Z,1012.57
2018-04-24T01:37:16.998Z,1012.62
2018-04-24T01:38:17.196Z,1012.58
2018-04-24T01:39:17.200Z,1012.61
2018-04-24T01:40:17.013Z,1012.59
2018-04-24T01:41:16.988Z,1012.56
2018-04-24T01:42:16.983Z,1012.53
2018-04-24T01:43:16.994Z,1012.53
2018-04-24T01:44:16.979Z,1012.47
2018-04-24T01:45:16.989Z,1012.44
2018-04-24T01:46:17.179Z,1012.39
2018-04-24T01:47:16.985Z,1012.36
2018-04-24T01:48:17.176Z,1012.35
2018-04-24T01:49:16.973Z,1012.35
2018-04-24T01:50:16.977Z,1012.31
2018-04-24T01:51:16.964Z,1012.27
2018-04-24T01:52:16.973Z,1012.30
2018-04-24T01:53:17.165Z,1012.30
2018-04-24T01:54:16.970Z,1012.30
2018-04-24T01:55:16.955Z,1012.33
2018-04-24T01:56:16.964Z,1012.38
2018-04-24T01:57:16.967Z,1012.40
2018-04-24T01:58:16.950Z,1012.38
2018-04-24T01:59:16.948Z,1012.39
2018-04-24T02:00:16.946Z,1012.42
2018-04-24T02:01:17.160Z,1012.42
2018-04-24T02:02:16.957Z,1012.43
2018-04-24T02:03:16.939Z,1012.49
2018-04-24T02:04:16.936Z,1012.43
2018-04-24T02:05:16.938Z,1012.39
2018-04-24T02:06:16.945Z,1012.41
2018-04-24T02:07:16.931Z,1012.40
2018-04-24T02:08:17.144Z,1012.41
2018-04-24T02:09:16.927Z,1012.42
2018-04-24T02:10:16.941Z,1012.42
2018-04-24T02:11:16.922Z,1012.38
2018-04-24T02:12:16.922Z,1012.37
2018-04-24T02:13:17.148Z,1012.38
2018-04-24T02:14:16.918Z,1012.33
2018-04-24T02:15:16.914Z,1012.36
2018-04-24T02:16:16.924Z,1012.36
2018-04-24T02:17:16.911Z,1012.37
2018-04-24T02:18:16.924Z,1012.36
2018-04-24T02:19:17.121Z,1012.37
2018-04-24T02:20:16.919Z,1012.43
2018-04-24T02:21:16.902Z,1012.42
2018-04-24T02:22:16.898Z,1012.37
2018-04-24T02:23:16.913Z,1012.41
2018-04-24T02:24:16.896Z,1012.38
2018-04-24T02:25:16.903Z,1012.39
2018-04-24T02:26:16.903Z,1012.41
2018-04-24T02:27:16.904Z,1012.41
2018-04-24T02:28:16.887Z,1012.39
2018-04-24T02:29:16.885Z,1012.39
2018-04-24T02:30:16.895Z,1012.41
2018-04-24T02:31:16.893Z,1012.41
2018-04-24T02:32:16.906Z,1012.42
2018-04-24T02:33:16.886Z,1012.39
2018-04-24T02:34:17.090Z,1012.40
2018-04-24T02:35:16.875Z,1012.32
2018-04-24T02:36:16.870Z,1012.27
2018-04-24T02:37:16.881Z,1012.25
2018-04-24T02:38:16.875Z,1012.20
2018-04-24T02:39:16.880Z,1012.24
2018-04-24T02:40:16.943Z,1012.24
2018-04-24T02:41:16.861Z,1012.27
2018-04-24T02:42:16.861Z,1012.24
2018-04-24T02:43:16.856Z,1012.16
2018-04-24T02:44:17.064Z,1012.17
2018-04-24T02:45:16.855Z,1012.16
2018-04-24T02:46:16.848Z,1012.20
2018-04-24T02:47:16.846Z,1012.20
2018-04-24T02:48:16.845Z,1012.23
2018-04-24T02:49:16.843Z,1012.16
2018-04-24T02:50:16.840Z,1012.12
2018-04-24T02:51:16.837Z,1012.08
2018-04-24T02:52:16.847Z,1012.05
2018-04-24T02:53:16.846Z,1012.05
2018-04-24T02:54:16.832Z,1012.01
2018-04-24T02:55:17.035Z,1012.03
2018-04-24T02:56:16.832Z,1012.07
2018-04-24T02:57:17.028Z,1012.04
2018-04-24T02:58:16.823Z,1011.99
2018-04-24T02:59:17.024Z,1012.01
2018-04-24T03:00:17.033Z,1012.03
2018-04-24T03:01:16.817Z,1012.01
2018-04-24T03:02:16.825Z,1011.98
2018-04-24T03:03:16.822Z,1012.00
2018-04-24T03:04:16.826Z,1012.03
2018-04-24T03:05:16.806Z,1012.04
2018-04-24T03:06:16.830Z,1012.10
2018-04-24T03:07:16.805Z,1012.09
2018-04-24T03:08:16.800Z,1012.13
2018-04-24T03:09:16.806Z,1012.17
2018-04-24T03:10:16.822Z,1012.21
2018-04-24T03:11:16.809Z,1012.21
2018-04-24T03:12:16.808Z,1012.22
2018-04-24T03:13:16.804Z,1012.21
2018-04-24T03:14:16.994Z,1012.18
2018-04-24T03:15:16.803Z,1012.21
2018-04-24T03:16:16.793Z,1012.20
2018-04-24T03:17:16.782Z,1012.18
2018-04-24T03:18:16.800Z,1012.24
2018-04-24T03:19:16.793Z,1012.24
2018-04-24T03:20:16.775Z,1012.26
2018-04-24T03:21:17.001Z,1012.24
2018-04-24T03:22:16.976Z,1012.20
2018-04-24T03:23:16.768Z,1012.17
2018-04-24T03:24:16.970Z,1012.15
2018-04-24T03:25:16.766Z,1012.12
2018-04-24T03:26:16.969Z,1012.09
2018-04-24T03:27:16.761Z,1012.09
2018-04-24T03:28:16.762Z,1012.02
2018-04-24T03:29:16.963Z,1012.01
2018-04-24T03:30:16.766Z,1012.02
2018-04-24T03:31:16.753Z,1011.99
2018-04-24T03:32:16.960Z,1011.98
2018-04-24T03:33:16.760Z,1011.98
2018-04-24T03:34:16.752Z,1011.98
2018-04-24T03:35:16.747Z,1011.94
2018-04-24T03:36:16.746Z,1011.96
2018-04-24T03:37:16.739Z,1011.99
2018-04-24T03:38:16.943Z,1011.97
2018-04-24T03:39:16.736Z,1011.95
2018-04-24T03:40:16.938Z,1011.98
2018-04-24T03:41:16.731Z,1012.01
2018-04-24T03:42:16.936Z,1011.97
2018-04-24T03:43:16.729Z,1011.94
2018-04-24T03:44:16.929Z,1011.93
2018-04-24T03:45:16.749Z,1011.95
2018-04-24T03:46:16.722Z,1011.96
2018-04-24T03:47:16.718Z,1011.97
2018-04-24T03:48:16.720Z,1011.99
2018-04-24T03:49:16.933Z,1011.98
2018-04-24T03:50:16.916Z,1011.94
2018-04-24T03:51:16.923Z,1011.97
2018-04-24T03:52:16.926Z,1011.91
2018-04-24T03:53:16.708Z,1011.90
2018-04-24T03:54:16.717Z,1011.90
2018-04-24T03:55:16.713Z,1011.86
2018-04-24T03:56:16.903Z,1011.85
2018-04-24T03:57:16.752Z,1011.82
2018-04-24T03:58:16.705Z,1011.82
2018-04-24T03:59:16.702Z,1011.81
2018-04-24T04:00:16.719Z,1011.82
2018-04-24T04:01:16.710Z,1011.85
2018-04-24T04:02:16.686Z,1011.83
2018-04-24T04:03:16.686Z,1011.83
2018-04-24T04:04:16.685Z,1011.77
2018-04-24T04:05:16.684Z,1011.75
2018-04-24T04:06:16.690Z,1011.77
2018-04-24T04:07:16.882Z,1011.79
2018-04-24T04:08:16.704Z,1011.82
2018-04-24T04:09:16.877Z,1011.80
2018-04-24T04:10:16.682Z,1011.80
2018-04-24T04:11:16.671Z,1011.80
2018-04-24T04:12:16.883Z,1011.77
2018-04-24T04:13:16.687Z,1011.85
2018-04-24T04:14:16.663Z,1011.86
2018-04-24T04:15:16.658Z,1011.85
2018-04-24T04:16:16.657Z,1011.78
2018-04-24T04:17:16.858Z,1011.77
2018-04-24T04:18:16.652Z,1011.75
2018-04-24T04:19:16.665Z,1011.72
2018-04-24T04:20:16.648Z,1011.65
2018-04-24T04:21:16.659Z,1011.63
2018-04-24T04:22:16.848Z,1011.59
2018-04-24T04:23:16.655Z,1011.61
2018-04-24T04:24:16.664Z,1011.65
2018-04-24T04:25:16.651Z,1011.67
2018-04-24T04:26:16.639Z,1011.69
2018-04-24T04:27:16.633Z,1011.72
2018-04-24T04:28:16.632Z,1011.76
2018-04-24T04:29:16.641Z,1011.78
2018-04-24T04:30:16.627Z,1011.79
2018-04-24T04:31:16.649Z,1011.75
2018-04-24T04:32:16.633Z,1011.73
2018-04-24T04:33:16.625Z,1011.72
2018-04-24T04:34:16.628Z,1011.75
2018-04-24T04:35:16.614Z,1011.78
2018-04-24T04:36:16.614Z,1011.81
2018-04-24T04:37:16.614Z,1011.79
2018-04-24T04:38:16.609Z,1011.81
2018-04-24T04:39:16.641Z,1011.82
2018-04-24T04:40:16.608Z,1011.83
2018-04-24T04:41:16.604Z,1011.83
2018-04-24T04:42:16.604Z,1011.82
2018-04-24T04:43:16.626Z,1011.88
2018-04-24T04:44:16.621Z,1011.86
2018-04-24T04:45:16.596Z,1011.86
2018-04-24T04:46:16.607Z,1011.91
2018-04-24T04:47:16.600Z,1011.88
2018-04-24T04:48:16.587Z,1011.90
2018-04-24T04:49:16.790Z,1011.91
2018-04-24T04:50:16.606Z,1011.93
2018-04-24T04:51:16.795Z,1011.97
2018-04-24T04:52:16.582Z,1011.99
2018-04-24T04:53:16.576Z,1012.02
2018-04-24T04:54:16.580Z,1012.05
2018-04-24T04:55:16.775Z,1012.07
2018-04-24T04:56:16.571Z,1012.08
2018-04-24T04:57:16.578Z,1012.09
2018-04-24T04:58:16.569Z,1012.11
2018-04-24T04:59:16.768Z,1012.14
2018-04-24T05:00:16.567Z,1012.23
2018-04-24T05:01:16.766Z,1012.26
2018-04-24T05:02:16.575Z,1012.35
2018-04-24T05:03:16.569Z,1012.29
2018-04-24T05:04:16.558Z,1012.31
2018-04-24T05:05:16.796Z,1012.32
2018-04-24T05:06:16.752Z,1012.37
2018-04-24T05:07:16.609Z,1012.36
2018-04-24T05:08:16.554Z,1012.39
2018-04-24T05:09:16.542Z,1012.37
2018-04-24T05:10:16.549Z,1012.38
2018-04-24T05:11:16.547Z,1012.36
2018-04-24T05:12:16.544Z,1012.34
2018-04-24T05:13:16.545Z,1012.37
2018-04-24T05:14:16.530Z,1012.37
2018-04-24T05:15:16.754Z,1012.37
2018-04-24T05:16:16.529Z,1012.32
2018-04-24T05:17:16.560Z,1012.33
2018-04-24T05:18:16.537Z,1012.33
2018-04-24T05:19:16.529Z,1012.36
2018-04-24T05:20:16.516Z,1012.34
2018-04-24T05:21:16.729Z,1012.31
2018-04-24T05:22:16.718Z,1012.34
2018-04-24T05:23:16.511Z,1012.36
2018-04-24T05:24:16.507Z,1012.35
2018-04-24T05:25:16.506Z,1012.30
2018-04-24T05:26:16.514Z,1012.31
2018-04-24T05:27:16.713Z,1012.32
2018-04-24T05:28:16.502Z,1012.31
2018-04-24T05:29:16.505Z,1012.34
2018-04-24T05:30:16.491Z,1012.33
2018-04-24T05:31:16.499Z,1012.32
2018-04-24T05:32:16.485Z,1012.32
2018-04-24T05:33:16.484Z,1012.36
2018-04-24T05:34:16.482Z,1012.31
2018-04-24T05:35:16.502Z,1012.32
2018-04-24T05:36:16.477Z,1012.39
2018-04-24T05:37:16.488Z,1012.37
2018-04-24T05:38:16.473Z,1012.39
2018-04-24T05:39:16.502Z,1012.42
2018-04-24T05:40:16.471Z,1012.46
2018-04-24T05:41:16.483Z,1012.44
2018-04-24T05:42:16.481Z,1012.47
2018-04-24T05:43:16.471Z,1012.47
2018-04-24T05:44:16.483Z,1012.51
2018-04-24T05:45:16.546Z,1012.52
2018-04-24T05:46:16.455Z,1012.53
2018-04-24T05:47:16.454Z,1012.56
2018-04-24T05:48:16.467Z,1012.52
2018-04-24T05:49:16.459Z,1012.55
2018-04-24T05:50:16.458Z,1012.62
2018-04-24T05:51:16.468Z,1012.63
2018-04-24T05:52:16.712Z,1012.58
2018-04-24T05:53:16.653Z,1012.60
2018-04-24T05:54:16.437Z,1012.60
2018-04-24T05:55:16.437Z,1012.59
2018-04-24T05:56:16.457Z,1012.65
2018-04-24T05:57:16.432Z,1012.64
2018-04-24T05:58:16.429Z,1012.63
2018-04-24T05:59:16.429Z,1012.66
2018-04-24T06:00:16.434Z,1012.63
2018-04-24T06:01:16.636Z,1012.66
2018-04-24T06:02:16.436Z,1012.63
2018-04-24T06:03:16.418Z,1012.64
2018-04-24T06:04:16.414Z,1012.63
2018-04-24T06:05:16.427Z,1012.63
2018-04-24T06:06:16.421Z,1012.59
2018-04-24T06:07:16.816Z,1012.59
2018-04-24T06:08:16.408Z,1012.55
2018-04-24T06:09:16.403Z,1012.61
2018-04-24T06:10:16.400Z,1012.60
2018-04-24T06:11:16.399Z,1012.56
2018-04-24T06:12:16.398Z,1012.59
2018-04-24T06:13:16.404Z,1012.61
2018-04-24T06:14:16.411Z,1012.61
2018-04-24T06:15:16.387Z,1012.58
2018-04-24T06:16:16.387Z,1012.59
2018-04-24T06:17:16.390Z,1012.58
2018-04-24T06:18:16.387Z,1012.59
2018-04-24T06:19:16.382Z,1012.60
2018-04-24T06:20:16.376Z,1012.63
2018-04-24T06:21:16.375Z,1012.59
2018-04-24T06:22:16.384Z,1012.58
2018-04-24T06:23:16.380Z,1012.57
2018-04-24T06:24:16.369Z,1012.54
2018-04-24T06:25:16.369Z,1012.53
2018-04-24T06:26:16.374Z,1012.55
2018-04-24T06:27:16.371Z,1012.52
2018-04-24T06:28:16.363Z,1012.53
2018-04-24T06:29:16.374Z,1012.53
2018-04-24T06:30:16.365Z,1012.53
2018-04-24T06:31:16.363Z,1012.49
2018-04-24T06:32:16.363Z,1012.55
2018-04-24T06:33:16.354Z,1012.52
2018-04-24T06:34:16.360Z,1012.52
2018-04-24T06:35:16.345Z,1012.51
2018-04-24T06:36:16.353Z,1012.50
2018-04-24T06:37:16.351Z,1012.52
2018-04-24T06:38:16.347Z,1012.54
2018-04-24T06:39:16.349Z,1012.54
2018-04-24T06:40:16.333Z,1012.54
2018-04-24T06:41:16.557Z,1012.54
2018-04-24T06:42:16.356Z,1012.56
2018-04-24T06:43:16.545Z,1012.55
2018-04-24T06:44:16.338Z,1012.55
2018-04-24T06:45:16.339Z,1012.53
2018-04-24T06:46:16.330Z,1012.56
2018-04-24T06:47:16.317Z,1012.52
2018-04-24T06:48:16.323Z,1012.51
2018-04-24T06:49:16.319Z,1012.46
2018-04-24T06:50:16.312Z,1012.46
2018-04-24T06:51:16.319Z,1012.46
2018-04-24T06:52:16.322Z,1012.49
2018-04-24T06:53:16.317Z,1012.43
2018-04-24T06:54:16.315Z,1012.49
2018-04-24T06:55:16.330Z,1012.48
2018-04-24T06:56:16.300Z,1012.44
2018-04-24T06:57:16.330Z,1012.45
2018-04-24T06:58:16.308Z,1012.41
2018-04-24T06:59:16.302Z,1012.47
2018-04-24T07:00:16.310Z,1012.45
2018-04-24T07:01:16.288Z,1012.44
2018-04-24T07:02:16.287Z,1012.47
2018-04-24T07:03:16.293Z,1012.42
2018-04-24T07:04:16.299Z,1012.44
2018-04-24T07:05:16.295Z,1012.46
2018-04-24T07:06:16.277Z,1012.43
2018-04-24T07:07:16.275Z,1012.44
2018-04-24T07:08:16.277Z,1012.52
2018-04-24T07:09:16.271Z,1012.56
2018-04-24T07:10:16.272Z,1012.58
2018-04-24T07:11:16.270Z,1012.58
2018-04-24T07:12:16.267Z,1012.60
2018-04-24T07:13:16.269Z,1012.51
2018-04-24T07:14:16.263Z,1012.51
2018-04-24T07:15:16.272Z,1012.48
2018-04-24T07:16:16.256Z,1012.44
2018-04-24T07:17:16.269Z,1012.41
2018-04-24T07:18:16.254Z,1012.44
2018-04-24T07:19:16.257Z,1012.47
2018-04-24T07:20:16.278Z,1012.43
2018-04-24T07:21:16.255Z,1012.39
2018-04-24T07:22:16.279Z,1012.38
2018-04-24T07:23:16.255Z,1012.44
2018-04-24T07:24:16.244Z,1012.42
2018-04-24T07:25:16.243Z,1012.44
2018-04-24T07:26:16.249Z,1012.48
2018-04-24T07:27:16.246Z,1012.49
2018-04-24T07:28:16.236Z,1012.52
2018-04-24T07:29:16.256Z,1012.51
2018-04-24T07:30:16.247Z,1012.56
2018-04-24T07:31:16.244Z,1012.58
2018-04-24T07:32:16.239Z,1012.58
2018-04-24T07:33:16.237Z,1012.58
2018-04-24T07:34:16.240Z,1012.55
2018-04-24T07:35:16.250Z,1012.54
2018-04-24T07:36:16.250Z,1012.55
2018-04-24T07:37:16.220Z,1012.49
2018-04-24T07:38:16.217Z,1012.53
2018-04-24T07:39:16.217Z,1012.64
2018-04-24T07:40:16.223Z,1012.64
2018-04-24T07:41:16.223Z,1012.64
2018-04-24T07:42:16.224Z,1012.68
2018-04-24T07:43:16.215Z,1012.70
2018-04-24T07:44:16.221Z,1012.65
2018-04-24T07:45:16.208Z,1012.69
2018-04-24T07:46:16.214Z,1012.63
2018-04-24T07:47:16.198Z,1012.68
2018-04-24T07:48:16.214Z,1012.65
2018-04-24T07:49:16.197Z,1012.66
2018-04-24T07:50:16.222Z,1012.67
2018-04-24T07:51:16.196Z,1012.63
2018-04-24T07:52:16.194Z,1012.62
2018-04-24T07:53:16.199Z,1012.66
2018-04-24T07:54:16.195Z,1012.70
2018-04-24T07:55:16.185Z,1012.73
2018-04-24T07:56:16.197Z,1012.79
2018-04-24T07:57:16.181Z,1012.68
2018-04-24T07:58:16.183Z,1012.68
2018-04-24T07:59:16.211Z,1012.66
2018-04-24T08:00:16.177Z,1012.69
2018-04-24T08:01:16.181Z,1012.70
2018-04-24T08:02:16.193Z,1012.69
2018-04-24T08:03:16.167Z,1012.71
2018-04-24T08:04:16.172Z,1012.60
2018-04-24T08:05:16.191Z,1012.62
2018-04-24T08:06:16.204Z,1012.62
2018-04-24T08:07:16.169Z,1012.57
2018-04-24T08:08:16.163Z,1012.58
2018-04-24T08:09:16.170Z,1012.58
2018-04-24T08:10:16.172Z,1012.57
2018-04-24T08:11:16.152Z,1012.58
2018-04-24T08:12:16.167Z,1012.59
2018-04-24T08:13:16.164Z,1012.61
2018-04-24T08:14:16.148Z,1012.55
2018-04-24T08:15:16.155Z,1012.57
2018-04-24T08:16:16.173Z,1012.59
2018-04-24T08:17:16.160Z,1012.58
2018-04-24T08:18:16.138Z,1012.57
2018-04-24T08:19:16.342Z,1012.56
2018-04-24T08:20:16.139Z,1012.59
2018-04-24T08:21:16.147Z,1012.63
2018-04-24T08:22:16.133Z,1012.63
2018-04-24T08:23:16.128Z,1012.60
2018-04-24T08:24:16.152Z,1012.62
2018-04-24T08:25:16.136Z,1012.65
2018-04-24T08:26:16.140Z,1012.67
2018-04-24T08:27:16.122Z,1012.73
2018-04-24T08:28:16.136Z,1012.66
2018-04-24T08:29:16.131Z,1012.71
2018-04-24T08:30:16.117Z,1012.67
2018-04-24T08:31:16.135Z,1012.72
2018-04-24T08:32:16.138Z,1012.71
2018-04-24T08:33:16.110Z,1012.74
2018-04-24T08:34:16.109Z,1012.76
2018-04-24T08:35:16.122Z,1012.75
2018-04-24T08:36:16.117Z,1012.81
2018-04-24T08:37:16.114Z,1012.81
2018-04-24T08:38:16.113Z,1012.77
2018-04-24T08:39:16.132Z,1012.81
2018-04-24T08:40:16.099Z,1012.75
2018-04-24T08:41:16.107Z,1012.72
2018-04-24T08:42:16.112Z,1012.80
2018-04-24T08:43:16.095Z,1012.78
2018-04-24T08:44:16.102Z,1012.85
2018-04-24T08:45:16.089Z,1012.89
2018-04-24T08:46:16.112Z,1012.89
2018-04-24T08:47:16.096Z,1012.88
2018-04-24T08:48:16.112Z,1012.85
2018-04-24T08:49:16.082Z,1012.86
2018-04-24T08:50:16.080Z,1012.88
2018-04-24T08:51:16.078Z,1012.88
2018-04-24T08:52:16.076Z,1012.91
2018-04-24T08:53:16.086Z,1012.93
2018-04-24T08:54:16.074Z,1012.92
2018-04-24T08:55:16.087Z,1012.92
2018-04-24T08:56:16.113Z,1012.83
2018-04-24T08:57:16.088Z,1012.87
2018-04-24T08:58:16.067Z,1012.87
2018-04-24T08:59:16.075Z,1012.88
2018-04-24T09:00:16.063Z,1012.89
2018-04-24T09:01:16.069Z,1012.95
2018-04-24T09:02:16.059Z,1012.96
2018-04-24T09:03:16.066Z,1012.97
2018-04-24T09:04:16.063Z,1012.97
2018-04-24T09:05:16.053Z,1013.01
2018-04-24T09:06:16.053Z,1012.99
2018-04-24T09:07:16.078Z,1012.99
2018-04-24T09:08:16.061Z,1013.02
2018-04-24T09:09:16.064Z,1012.99
2018-04-24T09:10:16.070Z,1012.97
2018-04-24T09:11:16.041Z,1012.98
2018-04-24T09:12:16.042Z,1012.97
2018-04-24T09:13:16.047Z,1012.99
2018-04-24T09:14:16.036Z,1012.97
2018-04-24T09:15:16.054Z,1013.02
2018-04-24T09:16:16.047Z,1013.05
2018-04-24T09:17:16.030Z,1013.11
2018-04-24T09:18:16.025Z,1013.09
2018-04-24T09:19:16.034Z,1013.11
2018-04-24T09:20:16.044Z,1013.11
2018-04-24T09:21:16.030Z,1013.13
2018-04-24T09:22:16.019Z,1013.10
2018-04-24T09:23:16.027Z,1013.09
2018-04-24T09:24:16.036Z,1013.09
2018-04-24T09:25:16.011Z,1013.05
2018-04-24T09:26:16.011Z,1013.04
2018-04-24T09:27:16.072Z,1013.04
2018-04-24T09:28:16.017Z,1013.07
2018-04-24T09:29:16.015Z,1013.06
2018-04-24T09:30:16.016Z,1013.12
2018-04-24T09:31:16.010Z,1013.09
2018-04-24T09:32:15.997Z,1013.08
2018-04-24T09:33:16.014Z,1013.10
2018-04-24T09:34:15.996Z,1013.08
2018-04-24T09:35:15.989Z,1013.03
2018-04-24T09:36:15.992Z,1013.01
2018-04-24T09:37:15.986Z,1012.99
2018-04-24T09:38:15.987Z,1012.97
2018-04-24T09:39:15.995Z,1012.98
2018-04-24T09:40:15.991Z,1012.97
2018-04-24T09:41:15.994Z,1012.95
2018-04-24T09:42:15.993Z,1012.89
2018-04-24T09:43:15.976Z,1012.90
2018-04-24T09:44:15.975Z,1012.88
2018-04-24T09:45:15.973Z,1012.87
2018-04-24T09:46:15.982Z,1012.87
2018-04-24T09:47:15.968Z,1012.94
2018-04-24T09:48:15.967Z,1012.97
2018-04-24T09:49:15.968Z,1012.96
2018-04-24T09:50:15.963Z,1012.98
2018-04-24T09:51:16.041Z,1012.96
2018-04-24T09:52:15.961Z,1012.93
2018-04-24T09:53:15.958Z,1012.94
2018-04-24T09:54:15.959Z,1012.96
2018-04-24T09:55:15.983Z,1012.94
2018-04-24T09:56:15.974Z,1012.96
2018-04-24T09:57:15.950Z,1012.97
2018-04-24T09:58:15.956Z,1012.98
2018-04-24T09:59:15.946Z,1013.01
2018-04-24T10:00:15.949Z,1013.06
2018-04-24T10:01:15.944Z,1013.09
2018-04-24T10:02:15.977Z,1013.10
2018-04-24T10:03:15.942Z,1013.11
2018-04-24T10:04:15.939Z,1013.10
2018-04-24T10:05:15.938Z,1013.09
2018-04-24T10:06:15.945Z,1013.05
2018-04-24T10:07:15.935Z,1013.08
2018-04-24T10:08:15.955Z,1013.06
2018-04-24T10:09:15.932Z,1013.02
2018-04-24T10:10:15.938Z,1013.01
2018-04-24T10:11:15.926Z,1012.94
2018-04-24T10:12:15.926Z,1012.96
2018-04-24T10:13:15.933Z,1012.95
2018-04-24T10:14:15.924Z,1013.03
2018-04-24T10:15:15.930Z,1013.04
2018-04-24T10:16:15.943Z,1013.04
2018-04-24T10:17:15.926Z,1013.00
2018-04-24T10:18:15.915Z,1013.05
2018-04-24T10:19:15.916Z,1013.01
2018-04-24T10:20:15.922Z,1013.00
2018-04-24T10:21:15.927Z,1012.98
2018-04-24T10:22:15.918Z,1012.96
2018-04-24T10:23:15.904Z,1012.97
2018-04-24T10:24:15.916Z,1012.97
2018-04-24T10:25:15.905Z,1012.95
2018-04-24T10:26:15.902Z,1012.95
2018-04-24T10:27:15.974Z,1012.92
2018-04-24T10:28:15.899Z,1012.90
2018-04-24T10:29:15.897Z,1012.86
2018-04-24T10:30:15.911Z,1012.84
2018-04-24T10:31:15.906Z,1012.81
2018-04-24T10:32:15.907Z,1012.73
2018-04-24T10:33:15.889Z,1012.75
2018-04-24T10:34:15.891Z,1012.68
2018-04-24T10:35:15.886Z,1012.64
2018-04-24T10:36:15.897Z,1012.62
2018-04-24T10:37:15.896Z,1012.59
2018-04-24T10:38:15.895Z,1012.55
2018-04-24T10:39:15.880Z,1012.56
2018-04-24T10:40:15.884Z,1012.56
2018-04-24T10:41:15.879Z,1012.60
2018-04-24T10:42:15.873Z,1012.63
2018-04-24T10:43:15.874Z,1012.68
2018-04-24T10:44:15.881Z,1012.66
2018-04-24T10:45:15.886Z,1012.71
2018-04-24T10:46:15.874Z,1012.66
2018-04-24T10:47:15.889Z,1012.61
2018-04-24T10:48:15.883Z,1012.59
2018-04-24T10:49:15.864Z,1012.59
2018-04-24T10:50:15.876Z,1012.58
2018-04-24T10:51:15.871Z,1012.55
2018-04-24T10:52:15.859Z,1012.59
2018-04-24T10:53:15.864Z,1012.51
2018-04-24T10:54:15.877Z,1012.54
2018-04-24T10:55:15.866Z,1012.50
2018-04-24T10:56:15.857Z,1012.53
2018-04-24T10:57:15.866Z,1012.54
2018-04-24T10:58:15.863Z,1012.52
2018-04-24T10:59:15.947Z,1012.53
2018-04-24T11:00:15.863Z,1012.54
2018-04-24T11:01:15.855Z,1012.57
2018-04-24T11:02:15.858Z,1012.53
2018-04-24T11:03:15.847Z,1012.54
2018-04-24T11:04:15.857Z,1012.54
2018-04-24T11:05:15.854Z,1012.53
2018-04-24T11:06:15.858Z,1012.55
2018-04-24T11:07:15.850Z,1012.49
2018-04-24T11:08:15.836Z,1012.48
2018-04-24T11:09:15.845Z,1012.42
2018-04-24T11:10:15.833Z,1012.42
2018-04-24T11:11:15.833Z,1012.37
2018-04-24T11:12:15.846Z,1012.41
2018-04-24T11:13:15.839Z,1012.44
2018-04-24T11:14:15.828Z,1012.41
2018-04-24T11:15:15.826Z,1012.47
2018-04-24T11:16:15.828Z,1012.47
2018-04-24T11:17:15.823Z,1012.45
2018-04-24T11:18:15.836Z,1012.46
2018-04-24T11:19:15.819Z,1012.47
2018-04-24T11:20:16.044Z,1012.45
2018-04-24T11:21:15.866Z,1012.46
2018-04-24T11:22:15.843Z,1012.41
2018-04-24T11:23:15.815Z,1012.39
2018-04-24T11:24:15.847Z,1012.42
2018-04-24T11:25:16.035Z,1012.38
2018-04-24T11:26:15.827Z,1012.36
2018-04-24T11:27:16.021Z,1012.39
2018-04-24T11:28:15.806Z,1012.44
2018-04-24T11:29:15.807Z,1012.39
2018-04-24T11:30:15.847Z,1012.41
2018-04-24T11:31:15.832Z,1012.37
2018-04-24T11:32:15.812Z,1012.32
2018-04-24T11:33:15.802Z,1012.35
2018-04-24T11:34:15.877Z,1012.31
2018-04-24T11:35:15.809Z,1012.32
2018-04-24T11:36:15.797Z,1012.31
2018-04-24T11:37:15.998Z,1012.33
2018-04-24T11:38:15.809Z,1012.32
2018-04-24T11:39:15.792Z,1012.34
2018-04-24T11:40:15.803Z,1012.34
2018-04-24T11:41:15.816Z,1012.38
2018-04-24T11:42:15.800Z,1012.38
2018-04-24T11:43:15.787Z,1012.42
2018-04-24T11:44:15.783Z,1012.44
2018-04-24T11:45:16.023Z,1012.42
2018-04-24T11:46:15.786Z,1012.43
2018-04-24T11:47:15.786Z,1012.48
2018-04-24T11:48:15.779Z,1012.49
2018-04-24T11:49:15.780Z,1012.49
2018-04-24T11:50:15.776Z,1012.47
2018-04-24T11:51:15.773Z,1012.50
2018-04-24T11:52:15.787Z,1012.50
2018-04-24T11:53:15.794Z,1012.53
2018-04-24T11:54:15.999Z,1012.48
2018-04-24T11:55:15.783Z,1012.53
2018-04-24T11:56:15.785Z,1012.50
2018-04-24T11:57:15.787Z,1012.47
2018-04-24T11:58:15.801Z,1012.48
2018-04-24T11:59:15.779Z,1012.48
2018-04-24T12:00:15.760Z,1012.49
2018-04-24T12:01:15.762Z,1012.50
2018-04-24T12:02:15.765Z,1012.50
2018-04-24T12:03:15.754Z,1012.50
2018-04-24T12:04:15.772Z,1012.47
2018-04-24T12:05:15.762Z,1012.48